sensor_id;sensor_type;location;lat;lon;timestamp;P1;durP1;ratioP1;P2;durP2;ratioP2
9667;SDS011;4872;48.316;10.650;2022-08-19T04:10:20;30.37;;;27.17;;
9667;SDS011;4872;48.316;10.650;2022-08-19T04:12:47;31.43;;;26.53;;
9667;SDS011;4872;48.316;10.650;2022-08-19T04:15:14;30.27;;;26.87;;
9667;SDS011;4872;48.316;10.650;2022-08-19T04:17:41;29.50;;;26.07;;
9667;SDS011;4872;48.316;10.650;2022-08-19T04:20:08;32.03;;;27.07;;
9667;SDS011;4872;48.316;10.650;2022-08-19T04:22:35;32.27;;;26.63;;
9667;SDS011;4872;48.316;10.650;2022-08-19T04:25:02;30.70;;;26.50;;
9667;SDS011;4872;48.316;10.650;2022-08-19T04:27:30;30.30;;;26.87;;
9667;SDS011;4872;48.316;10.650;2022-08-19T04:29:58;31.83;;;27.43;;
9667;SDS011;4872;48.316;10.650;2022-08-19T04:32:25;31.43;;;27.37;;
9667;SDS011;4872;48.316;10.650;2022-08-19T04:34:51;32.13;;;28.27;;
9667;SDS011;4872;48.316;10.650;2022-08-19T04:37:21;30.53;;;26.30;;
9667;SDS011;4872;48.316;10.650;2022-08-19T04:39:48;31.03;;;27.07;;
9667;SDS011;4872;48.316;10.650;2022-08-19T04:42:33;32.73;;;27.63;;
9667;SDS011;4872;48.316;10.650;2022-08-19T04:45:07;32.70;;;27.80;;
9667;SDS011;4872;48.316;10.650;2022-08-19T04:47:36;33.60;;;28.10;;
9667;SDS011;4872;48.316;10.650;2022-08-19T04:50:03;34.93;;;28.67;;
9667;SDS011;4872;48.316;10.650;2022-08-19T04:52:30;30.70;;;27.33;;
9667;SDS011;4872;48.316;10.650;2022-08-19T04:54:57;32.33;;;27.27;;
9667;SDS011;4872;48.316;10.650;2022-08-19T04:57:24;32.90;;;28.27;;
9667;SDS011;4872;48.316;10.650;2022-08-19T04:59:54;30.00;;;26.30;;
9667;SDS011;4872;48.316;10.650;2022-08-19T05:02:21;29.63;;;26.17;;
9667;SDS011;4872;48.316;10.650;2022-08-19T05:04:50;29.23;;;25.73;;
9667;SDS011;4872;48.316;10.650;2022-08-19T05:07:17;31.17;;;27.10;;
9667;SDS011;4872;48.316;10.650;2022-08-19T05:09:44;30.60;;;25.97;;
9667;SDS011;4872;48.316;10.650;2022-08-19T05:12:10;30.20;;;26.50;;
9667;SDS011;4872;48.316;10.650;2022-08-19T05:14:37;30.70;;;27.33;;
9667;SDS011;4872;48.316;10.650;2022-08-19T05:17:05;32.07;;;27.43;;
9667;SDS011;4872;48.316;10.650;2022-08-19T05:19:32;31.17;;;26.77;;
9667;SDS011;4872;48.316;10.650;2022-08-19T05:22:16;34.47;;;28.47;;
9667;SDS011;4872;48.316;10.650;2022-08-19T05:24:59;30.20;;;26.87;;
9667;SDS011;4872;48.316;10.650;2022-08-19T05:27:27;31.77;;;27.87;;
9667;SDS011;4872;48.316;10.650;2022-08-19T05:29:53;33.57;;;28.00;;
9667;SDS011;4872;48.316;10.650;2022-08-19T05:32:22;31.50;;;27.00;;
9667;SDS011;4872;48.316;10.650;2022-08-19T05:34:49;33.87;;;29.10;;
9667;SDS011;4872;48.316;10.650;2022-08-19T05:37:16;32.23;;;28.13;;
9667;SDS011;4872;48.316;10.650;2022-08-19T05:39:42;33.73;;;28.33;;
9667;SDS011;4872;48.316;10.650;2022-08-19T05:42:10;35.07;;;29.97;;
9667;SDS011;4872;48.316;10.650;2022-08-19T05:44:40;32.77;;;29.17;;
9667;SDS011;4872;48.316;10.650;2022-08-19T05:47:09;32.20;;;27.80;;
9667;SDS011;4872;48.316;10.650;2022-08-19T05:49:38;29.87;;;26.10;;
9667;SDS011;4872;48.316;10.650;2022-08-19T05:52:06;31.77;;;27.60;;
9667;SDS011;4872;48.316;10.650;2022-08-19T05:54:36;33.63;;;28.37;;
9667;SDS011;4872;48.316;10.650;2022-08-19T05:57:05;32.13;;;27.03;;
9667;SDS011;4872;48.316;10.650;2022-08-19T05:59:32;33.03;;;27.80;;
9667;SDS011;4872;48.316;10.650;2022-08-19T06:02:00;36.17;;;29.13;;
9667;SDS011;4872;48.316;10.650;2022-08-19T06:04:28;35.77;;;29.83;;
9667;SDS011;4872;48.316;10.650;2022-08-19T06:06:58;33.10;;;28.63;;
9667;SDS011;4872;48.316;10.650;2022-08-19T06:09:26;32.83;;;28.90;;
9667;SDS011;4872;48.316;10.650;2022-08-19T06:11:54;35.57;;;30.43;;
9667;SDS011;4872;48.316;10.650;2022-08-19T06:14:25;35.50;;;29.07;;
9667;SDS011;4872;48.316;10.650;2022-08-19T06:16:53;35.37;;;28.13;;
9667;SDS011;4872;48.316;10.650;2022-08-19T06:19:21;34.93;;;29.60;;
9667;SDS011;4872;48.316;10.650;2022-08-19T06:21:50;35.40;;;28.97;;
9667;SDS011;4872;48.316;10.650;2022-08-19T06:24:21;34.93;;;29.60;;
9667;SDS011;4872;48.316;10.650;2022-08-19T06:26:49;35.90;;;29.63;;
9667;SDS011;4872;48.316;10.650;2022-08-19T06:29:18;31.33;;;26.67;;
9667;SDS011;4872;48.316;10.650;2022-08-19T06:31:47;35.80;;;29.43;;
9667;SDS011;4872;48.316;10.650;2022-08-19T06:34:16;37.53;;;29.67;;
9667;SDS011;4872;48.316;10.650;2022-08-19T06:36:44;34.93;;;29.37;;
9667;SDS011;4872;48.316;10.650;2022-08-19T06:39:13;33.30;;;29.23;;
9667;SDS011;4872;48.316;10.650;2022-08-19T06:41:44;33.50;;;27.20;;
9667;SDS011;4872;48.316;10.650;2022-08-19T06:44:12;33.37;;;26.93;;
9667;SDS011;4872;48.316;10.650;2022-08-19T06:46:40;33.57;;;28.13;;
9667;SDS011;4872;48.316;10.650;2022-08-19T06:49:08;32.37;;;27.87;;
9667;SDS011;4872;48.316;10.650;2022-08-19T06:51:38;32.37;;;27.73;;
9667;SDS011;4872;48.316;10.650;2022-08-19T06:54:20;29.47;;;26.27;;
9667;SDS011;4872;48.316;10.650;2022-08-19T06:56:49;34.10;;;27.33;;
9667;SDS011;4872;48.316;10.650;2022-08-19T06:59:17;29.70;;;26.50;;
9667;SDS011;4872;48.316;10.650;2022-08-19T07:01:45;29.60;;;24.57;;
9667;SDS011;4872;48.316;10.650;2022-08-19T07:04:14;31.77;;;27.47;;
9667;SDS011;4872;48.316;10.650;2022-08-19T07:06:42;30.10;;;24.67;;
9667;SDS011;4872;48.316;10.650;2022-08-19T07:09:10;29.83;;;25.87;;
9667;SDS011;4872;48.316;10.650;2022-08-19T07:11:39;28.60;;;25.03;;
9667;SDS011;4872;48.316;10.650;2022-08-19T07:14:11;31.90;;;26.40;;
9667;SDS011;4872;48.316;10.650;2022-08-19T07:16:40;33.43;;;26.20;;
9667;SDS011;4872;48.316;10.650;2022-08-19T07:19:07;27.70;;;23.80;;
9667;SDS011;4872;48.316;10.650;2022-08-19T07:21:34;28.23;;;25.13;;
9667;SDS011;4872;48.316;10.650;2022-08-19T07:24:02;28.57;;;23.63;;
9667;SDS011;4872;48.316;10.650;2022-08-19T07:26:30;25.80;;;23.00;;
9667;SDS011;4872;48.316;10.650;2022-08-19T07:28:58;26.27;;;21.87;;
9667;SDS011;4872;48.316;10.650;2022-08-19T07:31:28;22.93;;;20.20;;
9667;SDS011;4872;48.316;10.650;2022-08-19T07:33:55;22.47;;;19.17;;
9667;SDS011;4872;48.316;10.650;2022-08-19T07:36:24;21.87;;;18.93;;
9667;SDS011;4872;48.316;10.650;2022-08-19T07:38:54;21.03;;;18.73;;
9667;SDS011;4872;48.316;10.650;2022-08-19T07:41:22;22.23;;;19.40;;
9667;SDS011;4872;48.316;10.650;2022-08-19T07:43:51;21.20;;;18.63;;
9667;SDS011;4872;48.316;10.650;2022-08-19T07:46:18;20.60;;;17.33;;
9667;SDS011;4872;48.316;10.650;2022-08-19T07:48:48;22.67;;;18.83;;
9667;SDS011;4872;48.316;10.650;2022-08-19T07:51:19;21.10;;;18.67;;
9667;SDS011;4872;48.316;10.650;2022-08-19T07:53:47;21.00;;;18.73;;
9667;SDS011;4872;48.316;10.650;2022-08-19T07:56:16;20.73;;;18.43;;
9667;SDS011;4872;48.316;10.650;2022-08-19T07:58:44;21.90;;;18.70;;
9667;SDS011;4872;48.316;10.650;2022-08-19T08:01:13;22.77;;;19.60;;
9667;SDS011;4872;48.316;10.650;2022-08-19T08:03:41;21.93;;;18.63;;
9667;SDS011;4872;48.316;10.650;2022-08-19T08:06:27;22.93;;;19.03;;
9667;SDS011;4872;48.316;10.650;2022-08-19T08:09:12;20.40;;;18.27;;
9667;SDS011;4872;48.316;10.650;2022-08-19T08:11:46;21.93;;;18.37;;
9667;SDS011;4872;48.316;10.650;2022-08-19T08:14:15;23.63;;;19.73;;
9667;SDS011;4872;48.316;10.650;2022-08-19T08:16:43;24.43;;;19.83;;
9667;SDS011;4872;48.316;10.650;2022-08-19T08:19:10;25.13;;;21.30;;
9667;SDS011;4872;48.316;10.650;2022-08-19T08:21:41;30.23;;;24.80;;
9667;SDS011;4872;48.316;10.650;2022-08-19T08:24:08;33.97;;;27.03;;
9667;SDS011;4872;48.316;10.650;2022-08-19T08:26:36;32.40;;;26.37;;
9667;SDS011;4872;48.316;10.650;2022-08-19T08:29:02;33.10;;;26.53;;
9667;SDS011;4872;48.316;10.650;2022-08-19T08:31:30;35.27;;;28.07;;
9667;SDS011;4872;48.316;10.650;2022-08-19T08:33:57;32.67;;;26.27;;
9667;SDS011;4872;48.316;10.650;2022-08-19T08:36:24;35.50;;;27.17;;
9667;SDS011;4872;48.316;10.650;2022-08-19T08:38:52;35.97;;;27.10;;
9667;SDS011;4872;48.316;10.650;2022-08-19T08:41:22;34.20;;;27.23;;
9667;SDS011;4872;48.316;10.650;2022-08-19T08:43:57;36.40;;;27.30;;
9667;SDS011;4872;48.316;10.650;2022-08-19T08:46:25;33.20;;;26.83;;
9667;SDS011;4872;48.316;10.650;2022-08-19T08:48:59;34.07;;;27.03;;
9667;SDS011;4872;48.316;10.650;2022-08-19T08:51:34;31.80;;;25.00;;
9667;SDS011;4872;48.316;10.650;2022-08-19T08:54:06;32.17;;;26.23;;
9667;SDS011;4872;48.316;10.650;2022-08-19T08:56:34;31.57;;;25.50;;
9667;SDS011;4872;48.316;10.650;2022-08-19T08:59:04;32.27;;;25.73;;
9667;SDS011;4872;48.316;10.650;2022-08-19T09:01:34;34.57;;;27.17;;
9667;SDS011;4872;48.316;10.650;2022-08-19T09:04:03;33.63;;;27.17;;
9667;SDS011;4872;48.316;10.650;2022-08-19T09:06:33;33.30;;;25.90;;
9667;SDS011;4872;48.316;10.650;2022-08-19T09:09:11;31.33;;;26.47;;
9667;SDS011;4872;48.316;10.650;2022-08-19T09:11:48;30.67;;;24.23;;
9667;SDS011;4872;48.316;10.650;2022-08-19T09:14:28;28.90;;;23.83;;
9667;SDS011;4872;48.316;10.650;2022-08-19T09:17:03;30.93;;;23.33;;
9667;SDS011;4872;48.316;10.650;2022-08-19T09:19:33;26.93;;;22.10;;
9667;SDS011;4872;48.316;10.650;2022-08-19T09:22:01;28.63;;;23.03;;
9667;SDS011;4872;48.316;10.650;2022-08-19T09:24:29;31.37;;;24.03;;
9667;SDS011;4872;48.316;10.650;2022-08-19T09:26:55;27.37;;;23.13;;
9667;SDS011;4872;48.316;10.650;2022-08-19T09:29:22;28.90;;;23.30;;
9667;SDS011;4872;48.316;10.650;2022-08-19T09:31:49;27.97;;;23.43;;
9667;SDS011;4872;48.316;10.650;2022-08-19T09:34:16;25.60;;;22.50;;
9667;SDS011;4872;48.316;10.650;2022-08-19T09:36:44;24.70;;;21.27;;
9667;SDS011;4872;48.316;10.650;2022-08-19T09:39:11;27.93;;;22.57;;
9667;SDS011;4872;48.316;10.650;2022-08-19T09:41:39;28.27;;;21.97;;
9667;SDS011;4872;48.316;10.650;2022-08-19T09:44:06;25.07;;;20.13;;
9667;SDS011;4872;48.316;10.650;2022-08-19T09:46:33;23.73;;;19.47;;
9667;SDS011;4872;48.316;10.650;2022-08-19T09:49:01;23.83;;;19.33;;
9667;SDS011;4872;48.316;10.650;2022-08-19T09:51:29;28.77;;;20.37;;
9667;SDS011;4872;48.316;10.650;2022-08-19T09:53:58;26.43;;;20.80;;
9667;SDS011;4872;48.316;10.650;2022-08-19T09:56:27;27.17;;;20.33;;
9667;SDS011;4872;48.316;10.650;2022-08-19T09:58:57;26.03;;;19.57;;
9667;SDS011;4872;48.316;10.650;2022-08-19T10:01:27;26.10;;;21.00;;
9667;SDS011;4872;48.316;10.650;2022-08-19T10:03:56;28.77;;;21.67;;
9667;SDS011;4872;48.316;10.650;2022-08-19T10:06:26;27.87;;;22.40;;
9667;SDS011;4872;48.316;10.650;2022-08-19T10:08:56;29.77;;;23.10;;
9667;SDS011;4872;48.316;10.650;2022-08-19T10:11:23;33.10;;;24.23;;
9667;SDS011;4872;48.316;10.650;2022-08-19T10:13:51;27.77;;;23.13;;
9667;SDS011;4872;48.316;10.650;2022-08-19T10:16:20;30.83;;;23.43;;
9667;SDS011;4872;48.316;10.650;2022-08-19T10:18:48;34.00;;;25.13;;
9667;SDS011;4872;48.316;10.650;2022-08-19T10:21:16;32.53;;;25.33;;
9667;SDS011;4872;48.316;10.650;2022-08-19T10:23:47;35.77;;;27.40;;
9667;SDS011;4872;48.316;10.650;2022-08-19T10:26:16;32.30;;;25.53;;
9667;SDS011;4872;48.316;10.650;2022-08-19T10:28:45;34.73;;;27.63;;
9667;SDS011;4872;48.316;10.650;2022-08-19T10:31:15;36.30;;;27.67;;
9667;SDS011;4872;48.316;10.650;2022-08-19T10:33:47;35.33;;;27.43;;
9667;SDS011;4872;48.316;10.650;2022-08-19T10:36:25;32.90;;;27.10;;
9667;SDS011;4872;48.316;10.650;2022-08-19T10:38:54;40.03;;;29.13;;
9667;SDS011;4872;48.316;10.650;2022-08-19T10:41:24;37.43;;;28.13;;
9667;SDS011;4872;48.316;10.650;2022-08-19T10:43:53;35.00;;;26.17;;
9667;SDS011;4872;48.316;10.650;2022-08-19T10:46:21;32.67;;;25.70;;
9667;SDS011;4872;48.316;10.650;2022-08-19T10:48:51;34.23;;;26.73;;
9667;SDS011;4872;48.316;10.650;2022-08-19T10:51:18;34.37;;;26.57;;
9667;SDS011;4872;48.316;10.650;2022-08-19T10:54:03;35.23;;;27.50;;
9667;SDS011;4872;48.316;10.650;2022-08-19T10:56:30;35.07;;;27.60;;
9667;SDS011;4872;48.316;10.650;2022-08-19T10:59:15;33.17;;;26.07;;
9667;SDS011;4872;48.316;10.650;2022-08-19T11:01:44;34.77;;;27.23;;
9667;SDS011;4872;48.316;10.650;2022-08-19T11:04:13;35.27;;;27.70;;
9667;SDS011;4872;48.316;10.650;2022-08-19T11:06:42;36.20;;;26.93;;
9667;SDS011;4872;48.316;10.650;2022-08-19T11:09:12;36.47;;;27.63;;
9667;SDS011;4872;48.316;10.650;2022-08-19T11:11:40;34.70;;;27.23;;
9667;SDS011;4872;48.316;10.650;2022-08-19T11:14:07;37.37;;;28.63;;
9667;SDS011;4872;48.316;10.650;2022-08-19T11:16:35;38.43;;;29.50;;
9667;SDS011;4872;48.316;10.650;2022-08-19T11:19:04;36.60;;;27.50;;
9667;SDS011;4872;48.316;10.650;2022-08-19T11:21:35;35.37;;;26.50;;
9667;SDS011;4872;48.316;10.650;2022-08-19T11:24:04;35.80;;;28.60;;
9667;SDS011;4872;48.316;10.650;2022-08-19T11:26:34;32.53;;;25.83;;
9667;SDS011;4872;48.316;10.650;2022-08-19T11:29:03;41.63;;;28.10;;
9667;SDS011;4872;48.316;10.650;2022-08-19T11:31:32;37.20;;;26.00;;
9667;SDS011;4872;48.316;10.650;2022-08-19T11:34:02;21.63;;;16.97;;
9667;SDS011;4872;48.316;10.650;2022-08-19T11:36:31;19.63;;;15.17;;
9667;SDS011;4872;48.316;10.650;2022-08-19T11:39:00;12.97;;;10.30;;
9667;SDS011;4872;48.316;10.650;2022-08-19T11:41:27;15.00;;;10.87;;
9667;SDS011;4872;48.316;10.650;2022-08-19T11:43:54;15.33;;;12.20;;
9667;SDS011;4872;48.316;10.650;2022-08-19T11:46:21;13.93;;;10.90;;
9667;SDS011;4872;48.316;10.650;2022-08-19T11:48:49;12.73;;;11.13;;
9667;SDS011;4872;48.316;10.650;2022-08-19T11:51:17;8.57;;;7.20;;
9667;SDS011;4872;48.316;10.650;2022-08-19T11:53:46;7.50;;;6.60;;
9667;SDS011;4872;48.316;10.650;2022-08-19T11:56:16;7.53;;;6.00;;
9667;SDS011;4872;48.316;10.650;2022-08-19T11:58:43;7.57;;;5.77;;
9667;SDS011;4872;48.316;10.650;2022-08-19T12:01:11;6.97;;;6.27;;
9667;SDS011;4872;48.316;10.650;2022-08-19T12:03:40;7.67;;;6.83;;
9667;SDS011;4872;48.316;10.650;2022-08-19T12:06:10;7.60;;;6.77;;
9667;SDS011;4872;48.316;10.650;2022-08-19T12:08:38;5.97;;;5.37;;
9667;SDS011;4872;48.316;10.650;2022-08-19T12:11:05;7.00;;;5.73;;
9667;SDS011;4872;48.316;10.650;2022-08-19T12:13:34;7.33;;;6.47;;
9667;SDS011;4872;48.316;10.650;2022-08-19T12:16:06;7.87;;;6.83;;
9667;SDS011;4872;48.316;10.650;2022-08-19T12:18:35;9.00;;;7.90;;
9667;SDS011;4872;48.316;10.650;2022-08-19T12:21:02;10.50;;;8.17;;
9667;SDS011;4872;48.316;10.650;2022-08-19T12:23:29;12.30;;;11.00;;
9667;SDS011;4872;48.316;10.650;2022-08-19T12:25:56;10.93;;;9.80;;
9667;SDS011;4872;48.316;10.650;2022-08-19T12:28:23;12.90;;;11.10;;
9667;SDS011;4872;48.316;10.650;2022-08-19T12:30:52;12.57;;;11.03;;
9667;SDS011;4872;48.316;10.650;2022-08-19T12:33:19;14.50;;;11.80;;
9667;SDS011;4872;48.316;10.650;2022-08-19T12:35:49;14.00;;;12.00;;
9667;SDS011;4872;48.316;10.650;2022-08-19T12:38:16;17.67;;;14.93;;
9667;SDS011;4872;48.316;10.650;2022-08-19T12:40:45;18.47;;;16.47;;
9667;SDS011;4872;48.316;10.650;2022-08-19T12:43:12;21.67;;;18.00;;
9667;SDS011;4872;48.316;10.650;2022-08-19T12:45:40;23.80;;;19.03;;
9667;SDS011;4872;48.316;10.650;2022-08-19T12:48:10;21.70;;;18.27;;
9667;SDS011;4872;48.316;10.650;2022-08-19T12:50:38;20.57;;;17.83;;
9667;SDS011;4872;48.316;10.650;2022-08-19T12:53:05;19.77;;;17.63;;
9667;SDS011;4872;48.316;10.650;2022-08-19T12:55:32;21.47;;;18.23;;
9667;SDS011;4872;48.316;10.650;2022-08-19T12:57:58;21.30;;;18.60;;
9667;SDS011;4872;48.316;10.650;2022-08-19T13:00:26;21.50;;;18.60;;
9667;SDS011;4872;48.316;10.650;2022-08-19T13:02:53;21.07;;;18.70;;
9667;SDS011;4872;48.316;10.650;2022-08-19T13:05:23;25.07;;;19.17;;
9667;SDS011;4872;48.316;10.650;2022-08-19T13:07:52;24.00;;;18.40;;
9667;SDS011;4872;48.316;10.650;2022-08-19T13:10:21;22.27;;;19.77;;
9667;SDS011;4872;48.316;10.650;2022-08-19T13:12:53;24.87;;;21.57;;
9667;SDS011;4872;48.316;10.650;2022-08-19T13:15:21;25.23;;;21.83;;
9667;SDS011;4872;48.316;10.650;2022-08-19T13:17:49;25.33;;;20.40;;
9667;SDS011;4872;48.316;10.650;2022-08-19T13:20:18;26.27;;;20.47;;
9667;SDS011;4872;48.316;10.650;2022-08-19T13:22:47;22.53;;;20.03;;
9667;SDS011;4872;48.316;10.650;2022-08-19T13:25:14;24.20;;;21.20;;
9667;SDS011;4872;48.316;10.650;2022-08-19T13:27:44;24.33;;;20.40;;
9667;SDS011;4872;48.316;10.650;2022-08-19T13:30:13;23.03;;;20.53;;
9667;SDS011;4872;48.316;10.650;2022-08-19T13:32:58;24.33;;;20.63;;
9667;SDS011;4872;48.316;10.650;2022-08-19T13:35:39;25.67;;;20.63;;
9667;SDS011;4872;48.316;10.650;2022-08-19T13:38:08;23.20;;;19.43;;
9667;SDS011;4872;48.316;10.650;2022-08-19T13:40:36;23.83;;;21.17;;
9667;SDS011;4872;48.316;10.650;2022-08-19T13:43:03;25.13;;;21.40;;
9667;SDS011;4872;48.316;10.650;2022-08-19T13:45:31;26.80;;;22.43;;
9667;SDS011;4872;48.316;10.650;2022-08-19T13:47:59;22.50;;;19.77;;
9667;SDS011;4872;48.316;10.650;2022-08-19T13:50:31;25.13;;;21.63;;
9667;SDS011;4872;48.316;10.650;2022-08-19T13:52:59;23.33;;;20.67;;
9667;SDS011;4872;48.316;10.650;2022-08-19T13:55:28;20.20;;;17.73;;
9667;SDS011;4872;48.316;10.650;2022-08-19T13:57:57;17.80;;;15.90;;
9667;SDS011;4872;48.316;10.650;2022-08-19T14:00:27;16.90;;;14.23;;
9667;SDS011;4872;48.316;10.650;2022-08-19T14:02:56;15.23;;;13.63;;
9667;SDS011;4872;48.316;10.650;2022-08-19T14:05:23;15.00;;;13.10;;
9667;SDS011;4872;48.316;10.650;2022-08-19T14:07:51;14.80;;;13.17;;
9667;SDS011;4872;48.316;10.650;2022-08-19T14:10:18;13.77;;;12.30;;
9667;SDS011;4872;48.316;10.650;2022-08-19T14:12:47;13.57;;;12.10;;
9667;SDS011;4872;48.316;10.650;2022-08-19T14:15:14;13.60;;;12.20;;
9667;SDS011;4872;48.316;10.650;2022-08-19T14:17:42;13.93;;;11.50;;
9667;SDS011;4872;48.316;10.650;2022-08-19T14:20:11;12.40;;;11.17;;
9667;SDS011;4872;48.316;10.650;2022-08-19T14:22:41;13.70;;;12.40;;
9667;SDS011;4872;48.316;10.650;2022-08-19T14:25:09;13.23;;;11.80;;
9667;SDS011;4872;48.316;10.650;2022-08-19T14:27:39;12.33;;;11.13;;
9667;SDS011;4872;48.316;10.650;2022-08-19T14:30:09;12.33;;;11.10;;
9667;SDS011;4872;48.316;10.650;2022-08-19T14:32:38;12.43;;;11.13;;
9667;SDS011;4872;48.316;10.650;2022-08-19T14:35:08;13.47;;;12.07;;
9667;SDS011;4872;48.316;10.650;2022-08-19T14:37:35;11.67;;;10.47;;
9667;SDS011;4872;48.316;10.650;2022-08-19T14:40:02;10.77;;;9.53;;
9667;SDS011;4872;48.316;10.650;2022-08-19T14:42:30;11.80;;;10.33;;
9667;SDS011;4872;48.316;10.650;2022-08-19T14:44:57;11.23;;;10.03;;
9667;SDS011;4872;48.316;10.650;2022-08-19T14:47:26;11.17;;;10.03;;
9667;SDS011;4872;48.316;10.650;2022-08-19T14:49:53;9.83;;;8.90;;
9667;SDS011;4872;48.316;10.650;2022-08-19T14:52:20;10.03;;;9.03;;
9667;SDS011;4872;48.316;10.650;2022-08-19T14:54:47;9.90;;;8.90;;
9667;SDS011;4872;48.316;10.650;2022-08-19T14:57:14;9.90;;;8.90;;
9667;SDS011;4872;48.316;10.650;2022-08-19T14:59:41;8.80;;;8.00;;
9667;SDS011;4872;48.316;10.650;2022-08-19T15:02:08;10.60;;;9.50;;
9667;SDS011;4872;48.316;10.650;2022-08-19T15:04:36;9.73;;;8.83;;
9667;SDS011;4872;48.316;10.650;2022-08-19T15:07:04;9.17;;;8.27;;
9667;SDS011;4872;48.316;10.650;2022-08-19T15:09:31;10.27;;;9.27;;
9667;SDS011;4872;48.316;10.650;2022-08-19T15:11:58;10.23;;;9.23;;
9667;SDS011;4872;48.316;10.650;2022-08-19T15:14:26;9.77;;;8.77;;
9667;SDS011;4872;48.316;10.650;2022-08-19T15:16:59;9.43;;;8.53;;
9667;SDS011;4872;48.316;10.650;2022-08-19T15:19:27;8.67;;;7.87;;
9667;SDS011;4872;48.316;10.650;2022-08-19T15:21:55;9.40;;;8.43;;
9667;SDS011;4872;48.316;10.650;2022-08-19T15:24:22;10.13;;;8.90;;
9667;SDS011;4872;48.316;10.650;2022-08-19T15:26:50;8.77;;;7.97;;
9667;SDS011;4872;48.316;10.650;2022-08-19T15:29:17;8.40;;;7.70;;
9667;SDS011;4872;48.316;10.650;2022-08-19T15:31:44;8.53;;;7.63;;
9667;SDS011;4872;48.316;10.650;2022-08-19T15:34:11;6.53;;;5.93;;
9667;SDS011;4872;48.316;10.650;2022-08-19T15:36:37;7.17;;;6.47;;
9667;SDS011;4872;48.316;10.650;2022-08-19T15:39:06;7.63;;;6.93;;
9667;SDS011;4872;48.316;10.650;2022-08-19T15:41:34;7.13;;;6.43;;
9667;SDS011;4872;48.316;10.650;2022-08-19T15:44:03;6.63;;;6.03;;
9667;SDS011;4872;48.316;10.650;2022-08-19T15:46:33;6.93;;;6.23;;
9667;SDS011;4872;48.316;10.650;2022-08-19T15:49:00;7.23;;;6.53;;
9667;SDS011;4872;48.316;10.650;2022-08-19T15:51:28;9.30;;;7.57;;
9667;SDS011;4872;48.316;10.650;2022-08-19T15:53:56;7.77;;;7.00;;
9667;SDS011;4872;48.316;10.650;2022-08-19T15:56:24;8.83;;;7.90;;
9667;SDS011;4872;48.316;10.650;2022-08-19T15:59:11;10.20;;;9.13;;
9667;SDS011;4872;48.316;10.650;2022-08-19T16:01:56;12.70;;;11.10;;
9667;SDS011;4872;48.316;10.650;2022-08-19T16:04:40;15.17;;;12.93;;
9667;SDS011;4872;48.316;10.650;2022-08-19T16:07:35;14.43;;;13.03;;
9667;SDS011;4872;48.316;10.650;2022-08-19T16:10:03;13.27;;;11.90;;
9667;SDS011;4872;48.316;10.650;2022-08-19T16:12:32;15.43;;;13.27;;
9667;SDS011;4872;48.316;10.650;2022-08-19T16:14:59;13.27;;;11.67;;
9667;SDS011;4872;48.316;10.650;2022-08-19T16:17:26;13.47;;;12.03;;
9667;SDS011;4872;48.316;10.650;2022-08-19T16:19:53;14.30;;;11.87;;
9667;SDS011;4872;48.316;10.650;2022-08-19T16:22:19;14.10;;;12.70;;
9667;SDS011;4872;48.316;10.650;2022-08-19T16:24:46;14.77;;;12.40;;
9667;SDS011;4872;48.316;10.650;2022-08-19T16:27:13;14.93;;;13.03;;
9667;SDS011;4872;48.316;10.650;2022-08-19T16:29:41;13.70;;;12.30;;
9667;SDS011;4872;48.316;10.650;2022-08-19T16:32:09;14.00;;;11.50;;
9667;SDS011;4872;48.316;10.650;2022-08-19T16:34:37;12.40;;;11.20;;
9667;SDS011;4872;48.316;10.650;2022-08-19T16:37:05;12.17;;;10.87;;
9667;SDS011;4872;48.316;10.650;2022-08-19T16:39:32;12.97;;;11.47;;
9667;SDS011;4872;48.316;10.650;2022-08-19T16:41:58;12.00;;;10.70;;
9667;SDS011;4872;48.316;10.650;2022-08-19T16:44:25;12.03;;;10.77;;
9667;SDS011;4872;48.316;10.650;2022-08-19T16:46:54;11.50;;;10.33;;
9667;SDS011;4872;48.316;10.650;2022-08-19T16:49:20;10.50;;;9.47;;
9667;SDS011;4872;48.316;10.650;2022-08-19T16:51:49;11.07;;;8.33;;
9667;SDS011;4872;48.316;10.650;2022-08-19T16:54:16;9.00;;;8.20;;
9667;SDS011;4872;48.316;10.650;2022-08-19T16:56:43;8.50;;;7.77;;
9667;SDS011;4872;48.316;10.650;2022-08-19T16:59:11;7.43;;;6.70;;
9667;SDS011;4872;48.316;10.650;2022-08-19T17:01:39;7.77;;;6.97;;
9667;SDS011;4872;48.316;10.650;2022-08-19T17:04:09;8.73;;;7.93;;
9667;SDS011;4872;48.316;10.650;2022-08-19T17:06:35;8.53;;;7.70;;
9667;SDS011;4872;48.316;10.650;2022-08-19T17:09:04;9.73;;;8.80;;
9667;SDS011;4872;48.316;10.650;2022-08-19T17:11:32;8.20;;;7.43;;
9667;SDS011;4872;48.316;10.650;2022-08-19T17:13:59;8.60;;;7.80;;
9667;SDS011;4872;48.316;10.650;2022-08-19T17:16:28;9.63;;;8.50;;
9667;SDS011;4872;48.316;10.650;2022-08-19T17:18:59;9.73;;;8.80;;
9667;SDS011;4872;48.316;10.650;2022-08-19T17:21:28;8.80;;;8.00;;
9667;SDS011;4872;48.316;10.650;2022-08-19T17:23:57;10.10;;;9.20;;
9667;SDS011;4872;48.316;10.650;2022-08-19T17:26:25;10.07;;;9.17;;
9667;SDS011;4872;48.316;10.650;2022-08-19T17:28:53;10.00;;;9.00;;
9667;SDS011;4872;48.316;10.650;2022-08-19T17:31:22;10.43;;;9.43;;
9667;SDS011;4872;48.316;10.650;2022-08-19T17:33:50;9.90;;;8.90;;
9667;SDS011;4872;48.316;10.650;2022-08-19T17:36:17;9.93;;;8.90;;
9667;SDS011;4872;48.316;10.650;2022-08-19T17:38:48;9.90;;;8.90;;
9667;SDS011;4872;48.316;10.650;2022-08-19T17:41:15;10.43;;;9.33;;
9667;SDS011;4872;48.316;10.650;2022-08-19T17:43:42;10.07;;;9.07;;
9667;SDS011;4872;48.316;10.650;2022-08-19T17:46:09;10.27;;;9.20;;
9667;SDS011;4872;48.316;10.650;2022-08-19T17:48:40;12.63;;;9.33;;
9667;SDS011;4872;48.316;10.650;2022-08-19T17:51:12;10.47;;;9.47;;
9667;SDS011;4872;48.316;10.650;2022-08-19T17:53:40;11.00;;;10.00;;
9667;SDS011;4872;48.316;10.650;2022-08-19T17:56:08;10.57;;;9.57;;
9667;SDS011;4872;48.316;10.650;2022-08-19T17:58:37;11.33;;;10.20;;
9667;SDS011;4872;48.316;10.650;2022-08-19T18:01:04;10.37;;;9.37;;
9667;SDS011;4872;48.316;10.650;2022-08-19T18:03:33;11.70;;;10.40;;
9667;SDS011;4872;48.316;10.650;2022-08-19T18:06:00;10.53;;;9.53;;
9667;SDS011;4872;48.316;10.650;2022-08-19T18:08:26;11.37;;;10.27;;
9667;SDS011;4872;48.316;10.650;2022-08-19T18:10:53;11.40;;;10.30;;
9667;SDS011;4872;48.316;10.650;2022-08-19T18:13:21;12.00;;;10.83;;
9667;SDS011;4872;48.316;10.650;2022-08-19T18:15:48;14.43;;;10.77;;
9667;SDS011;4872;48.316;10.650;2022-08-19T18:18:15;11.97;;;10.87;;
9667;SDS011;4872;48.316;10.650;2022-08-19T18:20:41;11.67;;;10.47;;
9667;SDS011;4872;48.316;10.650;2022-08-19T18:23:08;11.90;;;10.70;;
9667;SDS011;4872;48.316;10.650;2022-08-19T18:25:35;12.03;;;10.67;;
9667;SDS011;4872;48.316;10.650;2022-08-19T18:28:02;11.37;;;10.27;;
9667;SDS011;4872;48.316;10.650;2022-08-19T18:30:31;12.07;;;10.87;;
9667;SDS011;4872;48.316;10.650;2022-08-19T18:32:59;13.03;;;11.70;;
9667;SDS011;4872;48.316;10.650;2022-08-19T18:35:31;11.23;;;10.03;;
9667;SDS011;4872;48.316;10.650;2022-08-19T18:37:58;13.13;;;11.60;;
9667;SDS011;4872;48.316;10.650;2022-08-19T18:40:47;12.90;;;11.57;;
9667;SDS011;4872;48.316;10.650;2022-08-19T18:43:31;12.67;;;11.37;;
9667;SDS011;4872;48.316;10.650;2022-08-19T18:46:16;13.43;;;12.10;;
9667;SDS011;4872;48.316;10.650;2022-08-19T18:49:01;12.93;;;11.63;;
9667;SDS011;4872;48.316;10.650;2022-08-19T18:51:31;13.63;;;12.17;;
9667;SDS011;4872;48.316;10.650;2022-08-19T18:53:58;12.80;;;11.50;;
9667;SDS011;4872;48.316;10.650;2022-08-19T18:56:26;12.93;;;11.73;;
9667;SDS011;4872;48.316;10.650;2022-08-19T18:58:56;12.90;;;11.50;;